createdAt,value
2023-03-03T00:00:42.422Z,21.80
2023-03-03T00:01:44.775Z,21.50
2023-03-03T00:02:47.046Z,19.02
2023-03-03T00:03:49.379Z,33.05
2023-03-03T00:04:52.036Z,28.85
2023-03-03T00:05:54.575Z,21.80
2023-03-03T00:06:56.923Z,18.25
2023-03-03T00:07:59.409Z,19.27
2023-03-03T00:09:01.640Z,16.80
2023-03-03T00:10:04.345Z,16.42
2023-03-03T00:11:07.949Z,15.93
2023-03-03T00:12:30.275Z,14.77
2023-03-03T00:13:33.737Z,16.52
2023-03-03T00:14:36.029Z,10.60
2023-03-03T00:15:39.172Z,13.32
2023-03-03T00:16:41.850Z,10.68
2023-03-03T00:17:44.233Z,10.05
2023-03-03T00:18:48.035Z,10.25
2023-03-03T00:19:51.432Z,9.13
2023-03-03T00:20:57.226Z,10.75
2023-03-03T00:21:59.464Z,10.15
2023-03-03T00:23:17.424Z,12.18
2023-03-03T00:24:37.825Z,13.70
2023-03-03T00:25:45.466Z,11.95
2023-03-03T00:26:56.483Z,11.02
2023-03-03T00:28:16.223Z,12.30
2023-03-03T00:29:30.911Z,12.00
2023-03-03T00:30:34.894Z,14.38
2023-03-03T00:31:37.751Z,11.73
2023-03-03T00:32:47.385Z,11.57
2023-03-03T00:33:57.099Z,12.98
2023-03-03T00:35:24.727Z,11.90
2023-03-03T00:36:55.009Z,13.07
2023-03-03T00:38:02.221Z,9.35
2023-03-03T00:39:26.831Z,11.80
2023-03-03T00:40:35.975Z,12.88
2023-03-03T00:41:39.976Z,12.57
2023-03-03T00:42:46.193Z,12.60
2023-03-03T00:43:48.577Z,13.10
2023-03-03T00:44:58.728Z,13.13
2023-03-03T00:46:01.004Z,14.80
2023-03-03T00:47:27.232Z,13.65
2023-03-03T00:48:42.025Z,12.48
2023-03-03T00:49:44.574Z,11.32
2023-03-03T00:50:47.035Z,12.32
2023-03-03T00:51:49.401Z,11.43
2023-03-03T00:53:02.484Z,11.52
2023-03-03T00:54:05.417Z,13.07
2023-03-03T00:55:08.697Z,12.77
2023-03-03T00:56:10.961Z,12.15
2023-03-03T00:57:13.553Z,14.45
2023-03-03T00:58:18.649Z,15.15
2023-03-03T00:59:22.765Z,12.32
2023-03-03T01:00:25.201Z,10.95
2023-03-03T01:01:27.717Z,13.75
2023-03-03T01:02:31.176Z,13.48
2023-03-03T01:03:33.476Z,12.45
2023-03-03T01:04:35.900Z,13.15
2023-03-03T01:05:38.442Z,12.63
2023-03-03T01:06:40.726Z,15.98
2023-03-03T01:07:43.492Z,13.10
2023-03-03T01:08:45.729Z,14.95
2023-03-03T01:09:48.096Z,13.00
2023-03-03T01:10:53.910Z,11.18
2023-03-03T01:11:56.896Z,11.10
2023-03-03T01:12:59.424Z,12.73
2023-03-03T01:14:01.743Z,11.05
2023-03-03T01:15:08.068Z,13.35
2023-03-03T01:16:10.950Z,10.45
2023-03-03T01:17:13.201Z,15.52
2023-03-03T01:18:15.887Z,11.88
2023-03-03T01:19:18.403Z,11.80
2023-03-03T01:20:20.748Z,12.85
2023-03-03T01:21:23.082Z,14.63
2023-03-03T01:22:25.358Z,12.93
2023-03-03T01:23:28.006Z,14.05
2023-03-03T01:24:30.293Z,11.40
2023-03-03T01:25:32.997Z,14.18
2023-03-03T01:26:35.441Z,10.70
2023-03-03T01:27:37.713Z,10.38
2023-03-03T01:28:39.989Z,13.80
2023-03-03T01:29:42.361Z,11.13
2023-03-03T01:30:44.687Z,13.13
2023-03-03T01:31:48.348Z,11.23
2023-03-03T01:32:50.840Z,11.05
2023-03-03T01:33:53.093Z,12.23
2023-03-03T01:34:55.379Z,13.57
2023-03-03T01:35:58.100Z,12.60
2023-03-03T01:37:01.184Z,10.68
2023-03-03T01:38:03.548Z,14.15
2023-03-03T01:39:05.822Z,10.80
2023-03-03T01:40:24.282Z,9.38
2023-03-03T01:41:30.281Z,10.32
2023-03-03T01:42:32.578Z,14.13
2023-03-03T01:43:35.323Z,8.80
2023-03-03T01:44:38.144Z,11.13
2023-03-03T01:46:03.144Z,12.05
2023-03-03T01:47:10.263Z,8.77
2023-03-03T01:48:22.274Z,10.43
2023-03-03T01:49:34.862Z,15.48
2023-03-03T01:50:48.782Z,14.00
2023-03-03T01:51:56.524Z,11.90
2023-03-03T01:53:01.487Z,11.57
2023-03-03T01:54:10.775Z,13.02
2023-03-03T01:55:23.223Z,16.10
2023-03-03T01:56:26.938Z,12.98
2023-03-03T01:57:34.107Z,14.25
2023-03-03T01:58:44.708Z,14.05
2023-03-03T01:59:51.205Z,12.52
2023-03-03T02:00:59.526Z,16.40
2023-03-03T02:02:01.908Z,14.20
2023-03-03T02:03:05.199Z,11.63
2023-03-03T02:04:08.432Z,15.13
2023-03-03T02:05:11.452Z,13.75
2023-03-03T02:06:20.119Z,13.90
2023-03-03T02:07:25.770Z,12.50
2023-03-03T02:08:39.325Z,14.10
2023-03-03T02:09:48.118Z,10.90
2023-03-03T02:10:52.953Z,12.82
2023-03-03T02:11:59.706Z,13.77
2023-03-03T02:13:01.982Z,11.88
2023-03-03T02:14:04.247Z,11.90
2023-03-03T02:15:18.829Z,12.90
2023-03-03T02:16:21.349Z,13.32
2023-03-03T02:17:23.745Z,11.95
2023-03-03T02:18:27.260Z,11.95
2023-03-03T02:19:41.382Z,12.05
2023-03-03T02:21:10.379Z,15.55
2023-03-03T02:22:17.512Z,12.90
2023-03-03T02:23:43.682Z,12.48
2023-03-03T02:24:57.098Z,11.65
2023-03-03T02:26:03.786Z,13.32
2023-03-03T02:27:06.271Z,11.25
2023-03-03T02:28:08.832Z,12.68
2023-03-03T02:29:11.666Z,12.35
2023-03-03T02:30:22.696Z,11.88
2023-03-03T02:31:28.419Z,14.65
2023-03-03T02:32:30.791Z,17.42
2023-03-03T02:33:33.118Z,10.60
2023-03-03T02:34:49.830Z,13.52
2023-03-03T02:35:52.811Z,15.77
2023-03-03T02:36:55.762Z,12.88
2023-03-03T02:38:21.512Z,13.65
2023-03-03T02:39:26.739Z,12.05
2023-03-03T02:40:34.638Z,15.63
2023-03-03T02:41:58.949Z,12.70
2023-03-03T02:43:08.429Z,13.43
2023-03-03T02:44:16.162Z,12.70
2023-03-03T02:45:19.571Z,16.40
2023-03-03T02:46:21.838Z,15.43
2023-03-03T02:47:24.142Z,13.05
2023-03-03T02:48:26.506Z,13.55
2023-03-03T02:49:33.894Z,17.45
2023-03-03T02:50:36.157Z,16.02
2023-03-03T02:51:39.173Z,12.85
2023-03-03T02:52:41.411Z,13.57
2023-03-03T02:53:44.558Z,13.20
2023-03-03T02:54:46.968Z,16.48
2023-03-03T02:55:49.282Z,13.38
2023-03-03T02:56:51.863Z,15.57
2023-03-03T02:57:54.131Z,14.60
2023-03-03T02:58:56.523Z,11.20
2023-03-03T02:59:58.882Z,13.70
2023-03-03T03:01:01.840Z,15.50
2023-03-03T03:02:04.313Z,12.50
2023-03-03T03:03:06.616Z,13.50
2023-03-03T03:04:12.039Z,14.57
2023-03-03T03:05:17.966Z,15.00
2023-03-03T03:06:20.604Z,12.20
2023-03-03T03:07:23.173Z,14.82
2023-03-03T03:08:25.530Z,14.85
2023-03-03T03:09:28.744Z,13.23
2023-03-03T03:10:31.430Z,12.15
2023-03-03T03:11:35.320Z,13.95
2023-03-03T03:12:37.606Z,15.02
2023-03-03T03:13:39.970Z,19.85
2023-03-03T03:14:42.416Z,15.82
2023-03-03T03:15:47.346Z,12.30
2023-03-03T03:16:49.745Z,14.20
2023-03-03T03:17:52.367Z,13.85
2023-03-03T03:18:56.019Z,12.68
2023-03-03T03:19:58.352Z,14.23
2023-03-03T03:21:08.682Z,15.73
2023-03-03T03:22:11.159Z,13.88
2023-03-03T03:23:14.061Z,13.07
2023-03-03T03:24:16.312Z,15.05
2023-03-03T03:25:23.352Z,11.85
2023-03-03T03:26:26.434Z,13.73
2023-03-03T03:27:28.784Z,15.93
2023-03-03T03:28:31.617Z,15.90
2023-03-03T03:29:34.237Z,11.90
2023-03-03T03:30:40.442Z,14.77
2023-03-03T03:31:43.890Z,15.48
2023-03-03T03:32:46.743Z,13.02
2023-03-03T03:33:49.525Z,12.57
2023-03-03T03:34:52.493Z,14.60
2023-03-03T03:35:55.902Z,13.73
2023-03-03T03:36:58.342Z,15.27
2023-03-03T03:38:02.993Z,19.08
2023-03-03T03:39:06.792Z,15.18
2023-03-03T03:40:12.238Z,15.32
2023-03-03T03:41:14.658Z,13.07
2023-03-03T03:42:17.075Z,15.45
2023-03-03T03:43:19.457Z,14.23
2023-03-03T03:44:23.978Z,13.07
2023-03-03T03:45:26.244Z,15.98
2023-03-03T03:46:28.963Z,14.38
2023-03-03T03:47:31.387Z,14.63
2023-03-03T03:48:34.154Z,13.65
2023-03-03T03:49:38.159Z,13.25
2023-03-03T03:50:40.678Z,17.02
2023-03-03T03:51:43.278Z,15.75
2023-03-03T03:52:50.424Z,17.45
2023-03-03T03:53:52.716Z,15.85
2023-03-03T03:54:55.024Z,13.90
2023-03-03T03:55:57.376Z,16.52
2023-03-03T03:56:59.636Z,15.32
2023-03-03T03:58:02.940Z,14.93
2023-03-03T03:59:07.149Z,12.43
2023-03-03T04:00:11.309Z,16.58
2023-03-03T04:01:16.059Z,15.85
2023-03-03T04:02:22.601Z,11.90
2023-03-03T04:03:27.295Z,13.88
2023-03-03T04:04:30.003Z,14.13
2023-03-03T04:05:32.342Z,17.50
2023-03-03T04:06:34.723Z,15.80
2023-03-03T04:07:37.558Z,16.48
2023-03-03T04:08:39.834Z,19.10
2023-03-03T04:09:44.025Z,17.30
2023-03-03T04:10:46.277Z,16.90
2023-03-03T04:11:48.650Z,16.40
2023-03-03T04:12:51.167Z,14.13
2023-03-03T04:13:53.470Z,15.68
2023-03-03T04:14:56.036Z,18.25
2023-03-03T04:15:58.451Z,13.65
2023-03-03T04:17:00.865Z,14.70
2023-03-03T04:18:03.736Z,16.55
2023-03-03T04:19:06.371Z,19.42
2023-03-03T04:20:13.676Z,13.43
2023-03-03T04:21:16.606Z,18.30
2023-03-03T04:22:20.762Z,17.30
2023-03-03T04:23:23.125Z,15.70
2023-03-03T04:24:25.381Z,14.93
2023-03-03T04:25:28.101Z,15.07
2023-03-03T04:26:31.637Z,17.25
2023-03-03T04:27:36.636Z,15.70
2023-03-03T04:28:39.844Z,16.42
2023-03-03T04:29:43.022Z,15.68
2023-03-03T04:30:46.022Z,13.85
2023-03-03T04:31:51.307Z,17.75
2023-03-03T04:32:54.216Z,16.40
2023-03-03T04:33:59.341Z,16.10
2023-03-03T04:35:08.085Z,14.73
2023-03-03T04:36:12.790Z,12.93
2023-03-03T04:37:15.511Z,11.40
2023-03-03T04:38:17.894Z,11.43
2023-03-03T04:39:21.060Z,15.50
2023-03-03T04:40:23.586Z,13.23
2023-03-03T04:41:27.022Z,14.63
2023-03-03T04:42:30.152Z,13.63
2023-03-03T04:43:32.436Z,15.38
2023-03-03T04:44:35.848Z,14.10
2023-03-03T04:45:39.870Z,13.52
2023-03-03T04:46:42.909Z,11.60
2023-03-03T04:47:45.517Z,12.95
2023-03-03T04:48:48.228Z,14.00
2023-03-03T04:49:51.464Z,14.68
2023-03-03T04:50:54.539Z,14.25
2023-03-03T04:51:57.385Z,10.00
2023-03-03T04:53:00.069Z,11.90
2023-03-03T04:54:02.465Z,15.38
2023-03-03T04:55:05.453Z,13.88
2023-03-03T04:56:07.920Z,13.25
2023-03-03T04:57:10.845Z,13.45
2023-03-03T04:58:13.061Z,11.05
2023-03-03T04:59:15.779Z,14.02
2023-03-03T05:00:18.659Z,12.93
2023-03-03T05:01:21.045Z,13.20
2023-03-03T05:02:23.327Z,9.75
2023-03-03T05:03:27.141Z,15.45
2023-03-03T05:04:29.444Z,12.80
2023-03-03T05:05:31.770Z,16.60
2023-03-03T05:06:34.303Z,14.43
2023-03-03T05:07:36.640Z,17.05
2023-03-03T05:08:39.026Z,19.02
2023-03-03T05:09:41.300Z,18.60
2023-03-03T05:10:44.633Z,17.98
2023-03-03T05:11:47.046Z,17.40
2023-03-03T05:12:49.308Z,16.20
2023-03-03T05:13:51.647Z,15.65
2023-03-03T05:14:53.891Z,14.10
2023-03-03T05:15:56.915Z,16.40
2023-03-03T05:16:59.216Z,17.10
2023-03-03T05:18:01.586Z,16.00
2023-03-03T05:19:03.837Z,16.75
2023-03-03T05:20:08.560Z,17.90
2023-03-03T05:21:11.107Z,16.70
2023-03-03T05:22:13.434Z,16.77
2023-03-03T05:23:15.723Z,18.88
2023-03-03T05:24:18.255Z,24.23
2023-03-03T05:25:21.547Z,18.05
2023-03-03T05:26:23.818Z,18.92
2023-03-03T05:27:26.145Z,15.77
2023-03-03T05:28:28.747Z,19.45
2023-03-03T05:29:31.639Z,16.98
2023-03-03T05:30:35.798Z,18.27
2023-03-03T05:31:38.078Z,17.67
2023-03-03T05:32:40.480Z,17.40
2023-03-03T05:33:42.776Z,19.50
2023-03-03T05:34:45.020Z,17.33
2023-03-03T05:35:47.311Z,20.98
2023-03-03T05:36:49.724Z,21.33
2023-03-03T05:37:52.857Z,18.02
2023-03-03T05:38:55.192Z,21.75
2023-03-03T05:39:57.594Z,15.15
2023-03-03T05:40:59.864Z,20.42
2023-03-03T05:42:03.136Z,20.38
2023-03-03T05:43:05.546Z,15.43
2023-03-03T05:44:08.182Z,18.75
2023-03-03T05:45:11.143Z,18.73
2023-03-03T05:46:13.532Z,18.92
2023-03-03T05:47:15.908Z,18.80
2023-03-03T05:48:18.143Z,20.20
2023-03-03T05:49:20.589Z,18.08
2023-03-03T05:50:23.795Z,16.70
2023-03-03T05:51:26.231Z,17.35
2023-03-03T05:52:28.715Z,20.38
2023-03-03T05:53:31.009Z,20.48
2023-03-03T05:54:33.251Z,18.48
2023-03-03T05:55:35.472Z,18.67
2023-03-03T05:56:37.881Z,21.27
2023-03-03T05:57:40.258Z,18.25
2023-03-03T05:58:42.507Z,18.48
2023-03-03T05:59:45.042Z,17.20
2023-03-03T06:00:47.622Z,18.88
2023-03-03T06:01:49.954Z,17.38
2023-03-03T06:02:52.442Z,20.25
2023-03-03T06:03:54.793Z,22.05
2023-03-03T06:04:57.061Z,22.75
2023-03-03T06:05:59.354Z,18.85
2023-03-03T06:07:01.599Z,19.08
2023-03-03T06:08:04.037Z,19.65
2023-03-03T06:09:06.379Z,22.48
2023-03-03T06:10:09.666Z,19.80
2023-03-03T06:11:16.754Z,18.70
2023-03-03T06:12:19.483Z,22.42
2023-03-03T06:13:21.915Z,23.90
2023-03-03T06:14:26.724Z,25.17
2023-03-03T06:15:29.481Z,23.58
2023-03-03T06:16:31.878Z,18.60
2023-03-03T06:17:35.020Z,19.70
2023-03-03T06:18:37.602Z,24.25
2023-03-03T06:19:41.488Z,24.38
2023-03-03T06:20:43.876Z,21.95
2023-03-03T06:21:46.230Z,18.85
2023-03-03T06:22:48.452Z,22.30
2023-03-03T06:23:50.830Z,18.95
2023-03-03T06:24:53.061Z,22.35
2023-03-03T06:25:55.300Z,26.08
2023-03-03T06:26:58.629Z,20.98
2023-03-03T06:28:00.996Z,23.30
2023-03-03T06:29:03.914Z,21.52
2023-03-03T06:30:06.867Z,23.33
2023-03-03T06:31:09.156Z,19.48
2023-03-03T06:32:12.067Z,18.42
2023-03-03T06:33:14.401Z,21.98
2023-03-03T06:34:16.709Z,21.58
2023-03-03T06:35:19.203Z,21.52
2023-03-03T06:36:21.855Z,19.60
2023-03-03T06:37:24.137Z,22.90
2023-03-03T06:38:26.438Z,24.50
2023-03-03T06:39:28.825Z,24.10
2023-03-03T06:40:31.152Z,22.85
2023-03-03T06:41:33.802Z,21.48
2023-03-03T06:42:36.068Z,18.88
2023-03-03T06:43:38.843Z,17.27
2023-03-03T06:44:41.170Z,21.90
2023-03-03T06:45:45.791Z,19.15
2023-03-03T06:46:48.082Z,21.17
2023-03-03T06:47:50.339Z,22.52
2023-03-03T06:48:53.029Z,20.15
2023-03-03T06:49:55.534Z,25.90
2023-03-03T06:51:03.565Z,29.02
2023-03-03T06:52:24.055Z,22.75
2023-03-03T06:53:27.395Z,21.55
2023-03-03T06:54:31.070Z,25.08
2023-03-03T06:55:33.987Z,22.88
2023-03-03T06:56:37.976Z,22.17
2023-03-03T06:57:41.233Z,21.20
2023-03-03T06:58:43.504Z,22.85
2023-03-03T06:59:49.146Z,22.20
2023-03-03T07:00:59.724Z,20.83
2023-03-03T07:02:02.349Z,20.55
2023-03-03T07:03:21.680Z,20.17
2023-03-03T07:04:33.784Z,18.90
2023-03-03T07:05:38.464Z,20.50
2023-03-03T07:06:40.695Z,23.70
2023-03-03T07:07:43.524Z,16.48
2023-03-03T07:08:45.832Z,20.95
2023-03-03T07:09:50.573Z,19.00
2023-03-03T07:10:53.346Z,17.00
2023-03-03T07:12:01.862Z,16.15
2023-03-03T07:13:25.955Z,17.83
2023-03-03T07:14:29.545Z,18.05
2023-03-03T07:15:35.927Z,20.33
2023-03-03T07:16:38.348Z,18.20
2023-03-03T07:17:50.491Z,22.75
2023-03-03T07:18:58.725Z,16.35
2023-03-03T07:20:02.135Z,17.35
2023-03-03T07:21:16.822Z,16.30
2023-03-03T07:22:24.394Z,22.02
2023-03-03T07:23:42.633Z,21.10
2023-03-03T07:24:48.456Z,22.73
2023-03-03T07:25:52.136Z,19.65
2023-03-03T07:27:11.052Z,21.63
2023-03-03T07:28:28.406Z,21.00
2023-03-03T07:29:30.809Z,18.50
2023-03-03T07:30:33.545Z,17.05
2023-03-03T07:31:36.814Z,15.27
2023-03-03T07:32:45.910Z,17.08
2023-03-03T07:33:48.271Z,17.92
2023-03-03T07:34:53.936Z,18.60
2023-03-03T07:35:58.566Z,17.92
2023-03-03T07:37:12.163Z,17.65
2023-03-03T07:38:20.731Z,16.15
2023-03-03T07:39:40.360Z,17.10
2023-03-03T07:40:51.376Z,17.67
2023-03-03T07:42:14.072Z,17.40
2023-03-03T07:43:28.503Z,15.93
2023-03-03T07:44:38.079Z,16.48
2023-03-03T07:45:40.794Z,19.83
2023-03-03T07:46:48.104Z,17.85
2023-03-03T07:47:50.393Z,14.45
2023-03-03T07:48:53.237Z,17.10
2023-03-03T07:50:00.186Z,17.15
2023-03-03T07:51:26.968Z,14.90
2023-03-03T07:52:29.278Z,14.48
2023-03-03T07:53:35.549Z,15.35
2023-03-03T07:54:40.489Z,11.38
2023-03-03T07:55:43.121Z,15.80
2023-03-03T07:56:45.699Z,13.38
2023-03-03T07:57:50.494Z,13.82
2023-03-03T07:58:53.990Z,15.93
2023-03-03T08:00:05.382Z,14.18
2023-03-03T08:01:39.874Z,12.13
2023-03-03T08:02:45.228Z,13.50
2023-03-03T08:03:51.078Z,15.23
2023-03-03T08:04:54.904Z,12.65
2023-03-03T08:05:57.719Z,13.85
2023-03-03T08:07:02.245Z,12.38
2023-03-03T08:08:33.151Z,13.02
2023-03-03T08:09:38.190Z,13.50
2023-03-03T08:10:49.170Z,15.27
2023-03-03T08:11:55.522Z,14.77
2023-03-03T08:13:01.105Z,13.93
2023-03-03T08:14:11.129Z,13.18
2023-03-03T08:15:16.456Z,16.15
2023-03-03T08:16:30.415Z,11.65
2023-03-03T08:17:39.100Z,13.73
2023-03-03T08:18:49.402Z,13.32
2023-03-03T08:19:54.625Z,14.15
2023-03-03T08:21:02.336Z,14.63
2023-03-03T08:22:16.537Z,14.98
2023-03-03T08:23:20.451Z,15.00
2023-03-03T08:24:22.687Z,14.05
2023-03-03T08:25:24.945Z,15.25
2023-03-03T08:26:27.561Z,15.55
2023-03-03T08:27:30.377Z,13.82
2023-03-03T08:28:32.712Z,15.13
2023-03-03T08:29:35.689Z,13.95
2023-03-03T08:30:38.559Z,13.32
2023-03-03T08:31:42.205Z,13.90
2023-03-03T08:32:44.903Z,17.27
2023-03-03T08:33:47.595Z,15.10
2023-03-03T08:34:49.848Z,14.45
2023-03-03T08:35:52.189Z,12.38
2023-03-03T08:36:56.881Z,18.08
2023-03-03T08:37:59.412Z,16.70
2023-03-03T08:39:02.608Z,16.90
2023-03-03T08:40:05.734Z,17.20
2023-03-03T08:41:08.613Z,11.63
2023-03-03T08:42:10.938Z,15.38
2023-03-03T08:43:18.362Z,12.55
2023-03-03T08:44:20.749Z,14.93
2023-03-03T08:45:23.102Z,16.33
2023-03-03T08:46:25.449Z,13.73
2023-03-03T08:47:27.862Z,13.40
2023-03-03T08:48:30.260Z,12.63
2023-03-03T08:49:32.494Z,13.15
2023-03-03T08:50:34.828Z,14.75
2023-03-03T08:51:37.229Z,11.63
2023-03-03T08:52:39.646Z,12.85
2023-03-03T08:53:41.876Z,15.82
2023-03-03T08:54:44.139Z,11.95
2023-03-03T08:55:47.732Z,13.48
2023-03-03T08:56:50.552Z,13.95
2023-03-03T08:57:52.796Z,12.70
2023-03-03T08:59:03.191Z,12.02
2023-03-03T09:00:09.125Z,12.88
2023-03-03T09:01:11.429Z,9.70
2023-03-03T09:02:14.008Z,11.82
2023-03-03T09:03:16.345Z,10.55
2023-03-03T09:04:18.634Z,10.23
2023-03-03T09:05:22.260Z,12.52
2023-03-03T09:06:24.660Z,11.13
2023-03-03T09:07:27.109Z,10.55
2023-03-03T09:08:29.499Z,13.48
2023-03-03T09:09:31.727Z,13.77
2023-03-03T09:10:35.590Z,11.27
2023-03-03T09:11:37.956Z,12.00
2023-03-03T09:12:49.084Z,10.82
2023-03-03T09:13:53.415Z,13.18
2023-03-03T09:15:00.007Z,12.57
2023-03-03T09:16:09.576Z,12.98
2023-03-03T09:17:32.732Z,11.82
2023-03-03T09:18:39.617Z,14.40
2023-03-03T09:19:41.906Z,16.02
2023-03-03T09:20:49.440Z,15.13
2023-03-03T09:21:54.858Z,15.27
2023-03-03T09:22:59.330Z,15.88
2023-03-03T09:24:01.754Z,18.40
2023-03-03T09:25:21.662Z,16.23
2023-03-03T09:26:43.522Z,15.57
2023-03-03T09:27:45.841Z,11.93
2023-03-03T09:28:48.359Z,12.20
2023-03-03T09:29:50.604Z,10.75
2023-03-03T09:30:54.842Z,11.45
2023-03-03T09:32:07.785Z,10.27
2023-03-03T09:33:37.042Z,13.73
2023-03-03T09:34:43.232Z,13.02
2023-03-03T09:35:46.146Z,13.68
2023-03-03T09:36:52.474Z,13.30
2023-03-03T09:37:54.768Z,13.40
2023-03-03T09:38:58.143Z,11.55
2023-03-03T09:40:00.489Z,16.77
2023-03-03T09:41:30.895Z,14.07
2023-03-03T09:42:57.025Z,17.40
2023-03-03T09:44:17.339Z,16.23
2023-03-03T09:45:33.882Z,16.42
2023-03-03T09:47:03.128Z,16.27
2023-03-03T09:48:40.317Z,12.63
2023-03-03T09:50:03.112Z,13.80
2023-03-03T09:51:23.508Z,17.70
2023-03-03T09:52:44.403Z,11.35
2023-03-03T09:53:52.530Z,15.65
2023-03-03T09:55:25.554Z,15.25
2023-03-03T09:57:05.664Z,14.90
2023-03-03T09:58:45.828Z,14.88
2023-03-03T10:00:03.386Z,13.43
2023-03-03T10:01:34.965Z,13.60
2023-03-03T10:03:03.116Z,12.98
2023-03-03T10:04:14.053Z,11.38
2023-03-03T10:05:19.278Z,12.88
2023-03-03T10:06:24.329Z,13.23
2023-03-03T10:07:35.892Z,9.25
2023-03-03T10:09:20.169Z,9.23
2023-03-03T10:10:53.591Z,12.43
2023-03-03T10:12:01.284Z,13.40
2023-03-03T10:13:22.114Z,10.77
2023-03-03T10:14:43.517Z,13.13
2023-03-03T10:15:51.385Z,10.20
2023-03-03T10:17:09.059Z,12.48
2023-03-03T10:18:46.252Z,11.95
2023-03-03T10:20:17.618Z,10.95
2023-03-03T10:21:37.052Z,13.50
2023-03-03T10:22:59.938Z,12.77
2023-03-03T10:24:28.920Z,12.55
2023-03-03T10:25:39.156Z,11.10
2023-03-03T10:27:12.075Z,12.57
2023-03-03T10:29:05.455Z,11.48
2023-03-03T10:30:39.829Z,10.35
2023-03-03T10:31:53.677Z,10.57
2023-03-03T10:33:00.812Z,12.05
2023-03-03T10:34:27.238Z,11.23
2023-03-03T10:36:07.510Z,9.98
2023-03-03T10:37:15.598Z,10.32
2023-03-03T10:38:36.943Z,11.35
2023-03-03T10:40:05.893Z,10.80
2023-03-03T10:41:17.162Z,10.13
2023-03-03T10:42:40.601Z,10.25
2023-03-03T10:44:00.131Z,11.75
2023-03-03T10:45:27.954Z,12.90
2023-03-03T10:46:46.310Z,11.98
2023-03-03T10:47:53.878Z,14.18
2023-03-03T10:49:21.313Z,11.80
2023-03-03T10:50:31.310Z,15.68
2023-03-03T10:51:57.885Z,19.60
2023-03-03T10:53:21.026Z,28.20
2023-03-03T10:55:07.731Z,27.48
2023-03-03T10:56:52.760Z,22.42
2023-03-03T10:58:04.302Z,19.10
2023-03-03T10:59:36.637Z,17.88
2023-03-03T11:01:07.175Z,11.27
2023-03-03T11:02:18.209Z,15.95
2023-03-03T11:03:33.856Z,12.93
2023-03-03T11:05:10.269Z,10.95
2023-03-03T11:06:24.676Z,11.18
2023-03-03T11:07:34.263Z,12.60
2023-03-03T11:08:55.092Z,11.20
2023-03-03T11:10:27.383Z,12.90
2023-03-03T11:11:59.880Z,11.02
2023-03-03T11:13:13.607Z,13.15
2023-03-03T11:14:32.510Z,10.23
2023-03-03T11:16:16.466Z,8.63
2023-03-03T11:17:48.210Z,10.98
2023-03-03T11:19:02.523Z,10.15
2023-03-03T11:20:31.331Z,11.30
2023-03-03T11:22:15.015Z,12.18
2023-03-03T11:23:54.522Z,14.10
2023-03-03T11:25:05.281Z,11.18
2023-03-03T11:26:41.548Z,11.60
2023-03-03T11:28:02.619Z,11.80
2023-03-03T11:29:23.099Z,12.40
2023-03-03T11:30:42.734Z,10.55
2023-03-03T11:32:02.207Z,13.55
2023-03-03T11:33:13.944Z,8.98
2023-03-03T11:34:47.194Z,8.60
2023-03-03T11:36:08.335Z,10.50
2023-03-03T11:37:14.129Z,12.75
2023-03-03T11:38:40.153Z,10.00
2023-03-03T11:39:44.203Z,9.57
2023-03-03T11:41:01.687Z,11.25
2023-03-03T11:42:28.605Z,12.02
2023-03-03T11:43:43.053Z,10.93
2023-03-03T11:44:50.038Z,12.95
2023-03-03T11:46:00.654Z,11.98
2023-03-03T11:47:24.774Z,10.45
2023-03-03T11:48:43.059Z,12.45
2023-03-03T11:50:08.605Z,11.70
2023-03-03T11:51:35.078Z,11.85
2023-03-03T11:53:03.702Z,10.60
2023-03-03T11:54:24.760Z,11.70
2023-03-03T11:55:39.461Z,12.68
2023-03-03T11:56:44.169Z,11.50
2023-03-03T11:57:54.797Z,13.45
2023-03-03T11:59:13.793Z,9.18
2023-03-03T12:00:21.955Z,14.30
2023-03-03T12:01:39.328Z,14.18
2023-03-03T12:03:10.920Z,14.77
2023-03-03T12:04:18.963Z,12.98
2023-03-03T12:05:48.870Z,13.77
2023-03-03T12:07:19.063Z,14.32
2023-03-03T12:08:32.942Z,13.27
2023-03-03T12:10:08.308Z,12.43
2023-03-03T12:11:13.714Z,11.95
2023-03-03T12:12:26.502Z,14.45
2023-03-03T12:13:37.888Z,12.23
2023-03-03T12:15:09.295Z,14.70
2023-03-03T12:16:22.566Z,12.32
2023-03-03T12:17:47.523Z,12.10
2023-03-03T12:19:16.960Z,13.85
2023-03-03T12:20:34.388Z,12.15
2023-03-03T12:22:10.716Z,11.63
2023-03-03T12:23:52.850Z,14.40
2023-03-03T12:25:16.252Z,15.13
2023-03-03T12:26:18.522Z,15.25
2023-03-03T12:27:41.178Z,12.80
2023-03-03T12:28:55.139Z,11.73
2023-03-03T12:30:27.611Z,10.98
2023-03-03T12:31:42.189Z,14.98
2023-03-03T12:32:47.484Z,10.82
2023-03-03T12:33:59.384Z,14.25
2023-03-03T12:35:10.862Z,9.45
2023-03-03T12:36:47.562Z,9.25
2023-03-03T12:37:59.787Z,8.95
2023-03-03T12:39:33.917Z,8.63
2023-03-03T12:40:46.158Z,10.52
2023-03-03T12:42:07.697Z,9.63
2023-03-03T12:43:25.866Z,14.48
2023-03-03T12:44:37.883Z,11.23
2023-03-03T12:45:59.136Z,10.60
2023-03-03T12:47:22.277Z,12.85
2023-03-03T12:48:41.959Z,15.05
2023-03-03T12:50:07.454Z,12.32
2023-03-03T12:51:17.971Z,13.27
2023-03-03T12:52:45.157Z,13.20
2023-03-03T12:53:53.959Z,12.68
2023-03-03T12:55:28.718Z,12.45
2023-03-03T12:56:52.834Z,13.00
2023-03-03T12:58:08.634Z,11.32
2023-03-03T12:59:25.105Z,10.95
2023-03-03T13:00:48.913Z,9.95
2023-03-03T13:02:08.703Z,9.85
2023-03-03T13:03:53.254Z,11.77
2023-03-03T13:05:29.325Z,9.13
2023-03-03T13:06:37.671Z,8.98
2023-03-03T13:08:08.044Z,10.13
2023-03-03T13:09:53.927Z,8.15
2023-03-03T13:11:25.424Z,10.27
2023-03-03T13:12:27.645Z,11.55
2023-03-03T13:13:53.638Z,11.23
2023-03-03T13:15:16.348Z,14.45
2023-03-03T13:16:42.072Z,13.07
2023-03-03T13:18:15.696Z,11.57
2023-03-03T13:20:01.079Z,10.65
2023-03-03T13:21:11.453Z,15.50
2023-03-03T13:22:36.898Z,13.38
2023-03-03T13:23:53.535Z,12.68
2023-03-03T13:25:09.362Z,12.27
2023-03-03T13:26:31.737Z,11.27
2023-03-03T13:27:45.514Z,14.13
2023-03-03T13:29:14.035Z,13.90
2023-03-03T13:30:24.727Z,13.18
2023-03-03T13:31:41.443Z,13.27
2023-03-03T13:32:51.645Z,13.20
2023-03-03T13:33:59.069Z,11.45
2023-03-03T13:35:09.788Z,12.05
2023-03-03T13:36:14.986Z,11.02
2023-03-03T13:37:29.776Z,11.40
2023-03-03T13:38:36.655Z,11.68
2023-03-03T13:39:59.897Z,13.15
2023-03-03T13:41:25.709Z,7.70
2023-03-03T13:42:58.623Z,9.80
2023-03-03T13:44:19.254Z,11.70
2023-03-03T13:45:41.732Z,15.00
2023-03-03T13:47:23.362Z,10.52
2023-03-03T13:48:43.366Z,15.45
2023-03-03T13:50:10.757Z,12.20
2023-03-03T13:51:33.708Z,13.50
2023-03-03T13:52:53.641Z,15.60
2023-03-03T13:54:23.742Z,13.50
2023-03-03T13:55:33.865Z,12.90
2023-03-03T13:56:48.316Z,13.20
2023-03-03T13:57:56.358Z,12.73
2023-03-03T13:59:11.247Z,10.95
2023-03-03T14:00:26.648Z,10.48
2023-03-03T14:02:25.915Z,11.27
2023-03-03T14:04:05.360Z,11.88
2023-03-03T14:05:26.472Z,8.38
2023-03-03T14:06:30.018Z,12.38
2023-03-03T14:07:42.467Z,12.38
2023-03-03T14:09:03.350Z,13.70
2023-03-03T14:10:10.778Z,14.50
2023-03-03T14:11:43.749Z,15.07
2023-03-03T14:13:05.045Z,15.15
2023-03-03T14:14:38.473Z,15.23
2023-03-03T14:16:01.051Z,12.30
2023-03-03T14:17:32.077Z,14.85
2023-03-03T14:18:41.628Z,12.18
2023-03-03T14:19:46.715Z,13.82
2023-03-03T14:20:52.667Z,10.77
2023-03-03T14:22:14.561Z,12.35
2023-03-03T14:23:39.511Z,11.05
2023-03-03T14:25:12.249Z,14.18
2023-03-03T14:26:15.638Z,11.95
2023-03-03T14:27:27.869Z,14.80
2023-03-03T14:28:44.202Z,12.15
2023-03-03T14:29:47.270Z,11.23
2023-03-03T14:30:49.939Z,11.77
2023-03-03T14:31:53.572Z,10.30
2023-03-03T14:33:03.322Z,10.85
2023-03-03T14:34:11.437Z,11.10
2023-03-03T14:35:21.220Z,10.70
2023-03-03T14:36:31.119Z,11.38
2023-03-03T14:37:45.457Z,10.80
2023-03-03T14:38:48.981Z,12.07
2023-03-03T14:40:02.919Z,11.68
2023-03-03T14:41:11.129Z,10.43
2023-03-03T14:42:29.959Z,10.88
2023-03-03T14:44:21.388Z,10.98
2023-03-03T14:45:39.461Z,10.93
2023-03-03T14:46:41.889Z,13.05
2023-03-03T14:47:46.352Z,11.15
2023-03-03T14:48:57.049Z,8.65
2023-03-03T14:50:03.607Z,10.65
2023-03-03T14:51:36.505Z,10.38
2023-03-03T14:52:39.268Z,13.70
2023-03-03T14:53:47.986Z,12.15
2023-03-03T14:54:53.347Z,11.35
2023-03-03T14:56:13.822Z,11.13
2023-03-03T14:57:31.318Z,9.95
2023-03-03T14:58:42.041Z,10.45
2023-03-03T15:00:07.844Z,10.85
2023-03-03T15:01:34.255Z,13.50